createdAt,value
2018-01-03T00:00:37.679Z,8.81
2018-01-03T00:01:37.667Z,8.82
2018-01-03T00:02:37.656Z,8.82
2018-01-03T00:03:37.644Z,8.87
2018-01-03T00:04:37.632Z,8.87
2018-01-03T00:05:37.623Z,8.88
2018-01-03T00:06:37.611Z,9.00
2018-01-03T00:07:37.600Z,8.95
2018-01-03T00:08:37.589Z,9.08
2018-01-03T00:09:37.577Z,9.04
2018-01-03T00:10:37.567Z,9.04
2018-01-03T00:11:37.556Z,9.03
2018-01-03T00:12:37.548Z,9.11
2018-01-03T00:13:37.533Z,9.13
2018-01-03T00:14:37.521Z,9.19
2018-01-03T00:15:37.511Z,9.22
2018-01-03T00:16:37.499Z,9.08
2018-01-03T00:17:37.488Z,9.13
2018-01-03T00:18:37.482Z,9.10
2018-01-03T00:19:37.465Z,9.18
2018-01-03T00:20:37.454Z,9.14
2018-01-03T00:21:37.443Z,9.16
2018-01-03T00:22:37.436Z,9.21
2018-01-03T00:23:37.421Z,9.21
2018-01-03T00:24:37.410Z,9.28
2018-01-03T00:25:37.398Z,9.34
2018-01-03T00:26:37.388Z,9.32
2018-01-03T00:27:37.377Z,9.19
2018-01-03T00:28:37.366Z,9.19
2018-01-03T00:29:37.354Z,9.26
2018-01-03T00:30:37.343Z,9.41
2018-01-03T00:31:37.333Z,9.36
2018-01-03T00:32:37.322Z,9.28
2018-01-03T00:33:37.311Z,9.36
2018-01-03T00:34:37.300Z,9.26
2018-01-03T00:35:37.290Z,9.23
2018-01-03T00:36:37.277Z,9.36
2018-01-03T00:37:37.267Z,9.39
2018-01-03T00:38:37.255Z,9.40
2018-01-03T00:39:37.246Z,9.40
2018-01-03T00:40:37.233Z,9.37
2018-01-03T00:41:37.222Z,9.40
2018-01-03T00:42:37.213Z,9.54
2018-01-03T00:43:37.201Z,9.55
2018-01-03T00:44:37.189Z,9.65
2018-01-03T00:45:37.178Z,9.69
2018-01-03T00:46:37.168Z,9.66
2018-01-03T00:47:37.157Z,9.76
2018-01-03T00:48:37.146Z,9.76
2018-01-03T00:49:37.138Z,9.82
2018-01-03T00:50:37.125Z,9.80
2018-01-03T00:51:37.113Z,9.83
2018-01-03T00:52:37.103Z,9.84
2018-01-03T00:53:37.098Z,9.84
2018-01-03T00:54:37.082Z,9.89
2018-01-03T00:55:37.071Z,9.95
2018-01-03T00:56:37.060Z,9.91
2018-01-03T00:57:37.049Z,9.86
2018-01-03T00:58:37.039Z,9.98
2018-01-03T00:59:37.028Z,9.92
2018-01-03T01:00:37.017Z,9.99
2018-01-03T01:01:37.006Z,10.09
2018-01-03T01:02:37.000Z,10.04
2018-01-03T01:03:36.985Z,10.02
2018-01-03T01:04:36.975Z,10.17
2018-01-03T01:05:36.964Z,10.15
2018-01-03T01:06:36.953Z,10.05
2018-01-03T01:07:36.944Z,10.10
2018-01-03T01:08:36.932Z,10.20
2018-01-03T01:09:36.922Z,10.13
2018-01-03T01:10:36.911Z,10.12
2018-01-03T01:11:36.914Z,10.13
2018-01-03T01:12:36.890Z,10.26
2018-01-03T01:13:36.878Z,10.22
2018-01-03T01:14:36.867Z,10.17
2018-01-03T01:15:36.858Z,10.19
2018-01-03T01:16:36.846Z,10.25
2018-01-03T01:17:36.836Z,10.10
2018-01-03T01:18:36.825Z,10.22
2018-01-03T01:19:36.814Z,10.10
2018-01-03T01:20:36.803Z,10.16
2018-01-03T01:21:36.795Z,10.16
2018-01-03T01:22:36.782Z,10.23
2018-01-03T01:23:36.772Z,10.10
2018-01-03T01:24:36.761Z,10.19
2018-01-03T01:25:36.752Z,10.01
2018-01-03T01:26:36.740Z,9.99
2018-01-03T01:27:36.729Z,9.86
2018-01-03T01:28:36.719Z,9.73
2018-01-03T01:29:36.708Z,9.62
2018-01-03T01:30:36.697Z,9.66
2018-01-03T01:31:36.686Z,9.59
2018-01-03T01:32:36.675Z,9.55
2018-01-03T01:33:36.663Z,9.54
2018-01-03T01:34:36.653Z,9.44
2018-01-03T01:35:36.642Z,9.55
2018-01-03T01:36:36.630Z,9.46
2018-01-03T01:37:36.619Z,9.54
2018-01-03T01:38:36.608Z,9.48
2018-01-03T01:39:36.597Z,9.58
2018-01-03T01:40:36.584Z,9.50
2018-01-03T01:41:36.575Z,9.55
2018-01-03T01:42:36.562Z,9.55
2018-01-03T01:43:36.551Z,9.56
2018-01-03T01:44:36.540Z,9.56
2018-01-03T01:45:36.528Z,9.65
2018-01-03T01:46:36.517Z,9.65
2018-01-03T01:47:36.506Z,9.69
2018-01-03T01:48:36.493Z,9.66
2018-01-03T01:49:36.482Z,9.64
2018-01-03T01:50:36.473Z,9.56
2018-01-03T01:51:36.460Z,9.64
2018-01-03T01:52:36.448Z,9.61
2018-01-03T01:53:36.438Z,9.62
2018-01-03T01:54:36.426Z,9.64
2018-01-03T01:55:36.415Z,9.64
2018-01-03T01:56:36.405Z,9.64
2018-01-03T01:57:36.393Z,9.76
2018-01-03T01:58:36.381Z,9.76
2018-01-03T01:59:36.375Z,9.79
2018-01-03T02:00:36.361Z,9.79
2018-01-03T02:01:36.347Z,9.82
2018-01-03T02:02:36.337Z,9.73
2018-01-03T02:03:36.327Z,9.79
2018-01-03T02:04:36.314Z,9.73
2018-01-03T02:05:36.307Z,9.77
2018-01-03T02:06:36.295Z,9.83
2018-01-03T02:07:36.281Z,9.86
2018-01-03T02:08:36.269Z,9.89
2018-01-03T02:09:36.257Z,9.87
2018-01-03T02:10:36.247Z,9.89
2018-01-03T02:11:36.236Z,9.94
2018-01-03T02:12:36.224Z,9.91
2018-01-03T02:13:36.214Z,9.87
2018-01-03T02:14:36.203Z,9.95
2018-01-03T02:15:36.191Z,9.99
2018-01-03T02:16:36.226Z,10.02
2018-01-03T02:17:36.168Z,10.01
2018-01-03T02:18:36.181Z,10.04
2018-01-03T02:19:36.147Z,9.95
2018-01-03T02:20:36.135Z,10.01
2018-01-03T02:21:36.124Z,9.98
2018-01-03T02:22:36.114Z,9.84
2018-01-03T02:23:36.104Z,9.97
2018-01-03T02:24:36.091Z,9.98
2018-01-03T02:25:36.081Z,10.01
2018-01-03T02:26:36.070Z,9.97
2018-01-03T02:27:36.059Z,10.04
2018-01-03T02:28:36.047Z,9.97
2018-01-03T02:29:36.038Z,10.09
2018-01-03T02:30:36.026Z,10.04
2018-01-03T02:31:36.017Z,10.17
2018-01-03T02:32:36.004Z,10.10
2018-01-03T02:33:35.993Z,10.05
2018-01-03T02:34:35.982Z,10.16
2018-01-03T02:35:35.972Z,10.12
2018-01-03T02:36:35.960Z,10.10
2018-01-03T02:37:35.950Z,10.10
2018-01-03T02:38:35.938Z,10.15
2018-01-03T02:39:35.928Z,10.15
2018-01-03T02:40:35.917Z,10.13
2018-01-03T02:41:35.906Z,10.16
2018-01-03T02:42:35.900Z,10.10
2018-01-03T02:43:35.883Z,10.15
2018-01-03T02:44:35.874Z,10.12
2018-01-03T02:45:35.862Z,10.12
2018-01-03T02:46:35.851Z,10.19
2018-01-03T02:47:35.842Z,10.31
2018-01-03T02:48:35.831Z,10.30
2018-01-03T02:49:35.819Z,10.46
2018-01-03T02:50:35.809Z,10.40
2018-01-03T02:51:35.798Z,10.46
2018-01-03T02:52:35.786Z,10.49
2018-01-03T02:53:35.776Z,10.41
2018-01-03T02:54:35.767Z,10.42
2018-01-03T02:55:35.756Z,10.57
2018-01-03T02:56:35.745Z,10.60
2018-01-03T02:57:35.734Z,10.60
2018-01-03T02:58:35.724Z,10.59
2018-01-03T02:59:35.714Z,10.63
2018-01-03T03:00:35.701Z,10.54
2018-01-03T03:01:35.691Z,10.57
2018-01-03T03:02:35.682Z,10.42
2018-01-03T03:03:35.671Z,10.38
2018-01-03T03:04:35.659Z,10.41
2018-01-03T03:05:35.648Z,10.41
2018-01-03T03:06:35.638Z,10.34
2018-01-03T03:07:35.628Z,10.41
2018-01-03T03:08:35.616Z,10.46
2018-01-03T03:09:35.605Z,10.51
2018-01-03T03:10:35.596Z,10.48
2018-01-03T03:11:35.584Z,10.59
2018-01-03T03:12:35.572Z,10.51
2018-01-03T03:13:35.562Z,10.56
2018-01-03T03:14:35.550Z,10.54
2018-01-03T03:15:35.541Z,10.51
2018-01-03T03:16:35.529Z,10.57
2018-01-03T03:17:35.518Z,10.53
2018-01-03T03:18:35.508Z,10.60
2018-01-03T03:19:35.497Z,10.59
2018-01-03T03:20:35.485Z,10.53
2018-01-03T03:21:35.474Z,10.67
2018-01-03T03:22:35.464Z,10.69
2018-01-03T03:23:35.454Z,10.56
2018-01-03T03:24:35.443Z,10.57
2018-01-03T03:25:35.433Z,10.71
2018-01-03T03:26:35.421Z,10.68
2018-01-03T03:27:35.412Z,10.60
2018-01-03T03:28:35.407Z,10.71
2018-01-03T03:29:35.390Z,10.68
2018-01-03T03:30:35.379Z,10.75
2018-01-03T03:31:35.368Z,10.68
2018-01-03T03:32:35.357Z,10.68
2018-01-03T03:33:35.349Z,10.71
2018-01-03T03:34:35.338Z,10.84
2018-01-03T03:35:35.327Z,10.86
2018-01-03T03:36:35.315Z,10.84
2018-01-03T03:37:35.304Z,10.81
2018-01-03T03:38:35.295Z,10.86
2018-01-03T03:39:35.285Z,10.72
2018-01-03T03:40:35.274Z,10.84
2018-01-03T03:41:35.263Z,10.89
2018-01-03T03:42:35.252Z,10.82
2018-01-03T03:43:35.242Z,10.72
2018-01-03T03:44:35.232Z,10.72
2018-01-03T03:45:35.219Z,10.71
2018-01-03T03:46:35.210Z,10.69
2018-01-03T03:47:35.200Z,10.68
2018-01-03T03:48:35.188Z,10.69
2018-01-03T03:49:35.177Z,10.64
2018-01-03T03:50:35.168Z,10.64
2018-01-03T03:51:35.156Z,10.64
2018-01-03T03:52:35.193Z,10.69
2018-01-03T03:53:35.134Z,10.67
2018-01-03T03:54:35.124Z,10.71
2018-01-03T03:55:35.114Z,10.68
2018-01-03T03:56:35.101Z,10.68
2018-01-03T03:57:35.089Z,10.67
2018-01-03T03:58:35.081Z,10.59
2018-01-03T03:59:35.071Z,10.68
2018-01-03T04:00:35.057Z,10.61
2018-01-03T04:01:35.047Z,10.63
2018-01-03T04:02:35.037Z,10.59
2018-01-03T04:03:35.026Z,10.69
2018-01-03T04:04:35.015Z,10.68
2018-01-03T04:05:35.004Z,10.72
2018-01-03T04:06:34.992Z,10.71
2018-01-03T04:07:34.982Z,10.72
2018-01-03T04:08:34.971Z,10.64
2018-01-03T04:09:34.959Z,10.19
2018-01-03T04:10:34.951Z,10.19
2018-01-03T04:11:34.939Z,10.16
2018-01-03T04:12:34.933Z,10.15
2018-01-03T04:13:34.916Z,9.83
2018-01-03T04:14:34.904Z,9.83
2018-01-03T04:15:34.893Z,9.58
2018-01-03T04:16:34.882Z,9.22
2018-01-03T04:17:34.870Z,9.10
2018-01-03T04:18:34.859Z,9.11
2018-01-03T04:19:34.852Z,9.03
2018-01-03T04:20:34.836Z,9.06
2018-01-03T04:21:34.825Z,8.91
2018-01-03T04:22:34.817Z,8.87
2018-01-03T04:23:34.802Z,8.88
2018-01-03T04:24:34.789Z,8.76
2018-01-03T04:25:34.778Z,8.60
2018-01-03T04:26:34.767Z,8.64
2018-01-03T04:27:34.756Z,8.91
2018-01-03T04:28:34.743Z,8.78
2018-01-03T04:29:34.731Z,8.63
2018-01-03T04:30:34.720Z,8.76
2018-01-03T04:31:34.707Z,8.88
2018-01-03T04:32:34.701Z,8.81
2018-01-03T04:33:34.683Z,8.67
2018-01-03T04:34:34.672Z,8.73
2018-01-03T04:35:34.660Z,8.76
2018-01-03T04:36:34.646Z,8.81
2018-01-03T04:37:34.635Z,8.82
2018-01-03T04:38:34.625Z,8.84
2018-01-03T04:39:34.612Z,8.79
2018-01-03T04:40:34.601Z,8.85
2018-01-03T04:41:34.589Z,8.69
2018-01-03T04:42:34.576Z,8.81
2018-01-03T04:43:34.565Z,8.82
2018-01-03T04:44:34.553Z,8.74
2018-01-03T04:45:34.543Z,8.71
2018-01-03T04:46:34.530Z,8.82
2018-01-03T04:47:34.518Z,8.70
2018-01-03T04:48:34.506Z,8.60
2018-01-03T04:49:34.494Z,8.61
2018-01-03T04:50:34.484Z,8.60
2018-01-03T04:51:34.471Z,8.60
2018-01-03T04:52:34.460Z,8.51
2018-01-03T04:53:34.449Z,8.53
2018-01-03T04:54:34.437Z,8.53
2018-01-03T04:55:34.425Z,8.49
2018-01-03T04:56:34.414Z,8.49
2018-01-03T04:57:34.401Z,8.48
2018-01-03T04:58:34.392Z,8.46
2018-01-03T04:59:34.379Z,8.42
2018-01-03T05:00:34.367Z,8.48
2018-01-03T05:01:34.355Z,8.38
2018-01-03T05:02:34.344Z,8.36
2018-01-03T05:03:34.333Z,8.38
2018-01-03T05:04:34.321Z,8.44
2018-01-03T05:05:34.309Z,8.49
2018-01-03T05:06:34.298Z,8.51
2018-01-03T05:07:34.286Z,8.42
2018-01-03T05:08:34.274Z,8.41
2018-01-03T05:09:34.262Z,8.52
2018-01-03T05:10:34.252Z,8.38
2018-01-03T05:11:34.239Z,8.44
2018-01-03T05:12:34.227Z,8.42
2018-01-03T05:13:34.221Z,8.52
2018-01-03T05:14:34.205Z,8.52
2018-01-03T05:15:34.193Z,8.56
2018-01-03T05:16:34.182Z,8.48
2018-01-03T05:17:34.170Z,8.34
2018-01-03T05:18:34.158Z,8.45
2018-01-03T05:19:34.146Z,8.45
2018-01-03T05:20:34.134Z,8.41
2018-01-03T05:21:34.122Z,8.41
2018-01-03T05:22:34.112Z,8.37
2018-01-03T05:23:34.100Z,8.27
2018-01-03T05:24:34.088Z,8.37
2018-01-03T05:25:34.078Z,8.42
2018-01-03T05:26:34.066Z,8.42
2018-01-03T05:27:34.054Z,8.46
2018-01-03T05:28:34.041Z,8.49
2018-01-03T05:29:34.031Z,8.53
2018-01-03T05:30:34.020Z,8.41
2018-01-03T05:31:34.009Z,8.58
2018-01-03T05:32:33.995Z,8.73
2018-01-03T05:33:33.997Z,8.61
2018-01-03T05:34:34.021Z,8.67
2018-01-03T05:35:33.962Z,8.60
2018-01-03T05:36:33.949Z,8.63
2018-01-03T05:37:33.938Z,8.63
2018-01-03T05:38:33.927Z,8.73
2018-01-03T05:39:33.915Z,8.69
2018-01-03T05:40:33.903Z,8.81
2018-01-03T05:41:33.894Z,8.81
2018-01-03T05:42:33.880Z,8.70
2018-01-03T05:43:33.868Z,8.63
2018-01-03T05:44:33.856Z,8.79
2018-01-03T05:45:33.845Z,8.79
2018-01-03T05:46:33.834Z,8.81
2018-01-03T05:47:33.826Z,8.82
2018-01-03T05:48:33.811Z,8.78
2018-01-03T05:49:33.799Z,8.70
2018-01-03T05:50:33.788Z,8.89
2018-01-03T05:51:33.776Z,8.84
2018-01-03T05:52:33.765Z,8.70
2018-01-03T05:53:33.754Z,8.71
2018-01-03T05:54:33.741Z,8.76
2018-01-03T05:55:33.731Z,8.70
2018-01-03T05:56:33.720Z,8.71
2018-01-03T05:57:33.708Z,8.67
2018-01-03T05:58:33.696Z,8.66
2018-01-03T05:59:33.686Z,8.63
2018-01-03T06:00:33.673Z,8.66
2018-01-03T06:01:33.662Z,8.66
2018-01-03T06:02:33.652Z,8.70
2018-01-03T06:03:33.641Z,8.84
2018-01-03T06:04:33.628Z,8.82
2018-01-03T06:05:33.617Z,8.79
2018-01-03T06:06:33.606Z,8.70
2018-01-03T06:07:33.594Z,8.85
2018-01-03T06:08:33.582Z,8.71
2018-01-03T06:09:33.571Z,8.79
2018-01-03T06:10:33.560Z,8.71
2018-01-03T06:11:33.549Z,8.76
2018-01-03T06:12:33.536Z,8.81
2018-01-03T06:13:33.526Z,8.70
2018-01-03T06:14:33.515Z,8.76
2018-01-03T06:15:33.503Z,8.69
2018-01-03T06:16:33.493Z,8.87
2018-01-03T06:17:33.481Z,8.82
2018-01-03T06:18:33.469Z,8.71
2018-01-03T06:19:33.459Z,8.67
2018-01-03T06:20:33.447Z,8.71
2018-01-03T06:21:33.436Z,8.78
2018-01-03T06:22:33.425Z,8.76
2018-01-03T06:23:33.413Z,8.84
2018-01-03T06:24:33.401Z,8.67
2018-01-03T06:25:33.392Z,8.63
2018-01-03T06:26:33.381Z,8.69
2018-01-03T06:27:33.368Z,8.66
2018-01-03T06:28:33.357Z,8.69
2018-01-03T06:29:33.344Z,8.73
2018-01-03T06:30:33.334Z,8.58
2018-01-03T06:31:33.323Z,8.69
2018-01-03T06:32:33.312Z,8.66
2018-01-03T06:33:33.299Z,8.61
2018-01-03T06:34:33.288Z,8.66
2018-01-03T06:35:33.277Z,8.73
2018-01-03T06:36:33.264Z,8.74
2018-01-03T06:37:33.254Z,8.67
2018-01-03T06:38:33.248Z,8.70
2018-01-03T06:39:33.231Z,8.73
2018-01-03T06:40:33.220Z,8.79
2018-01-03T06:41:33.209Z,8.84
2018-01-03T06:42:33.197Z,8.73
2018-01-03T06:43:33.187Z,8.73
2018-01-03T06:44:33.174Z,8.64
2018-01-03T06:45:33.168Z,8.61
2018-01-03T06:46:33.152Z,8.52
2018-01-03T06:47:33.140Z,8.64
2018-01-03T06:48:33.174Z,8.60
2018-01-03T06:49:33.116Z,8.55
2018-01-03T06:50:33.106Z,8.58
2018-01-03T06:51:33.094Z,8.55
2018-01-03T06:52:33.083Z,8.60
2018-01-03T06:53:33.072Z,8.52
2018-01-03T06:54:33.059Z,8.64
2018-01-03T06:55:33.049Z,8.79
2018-01-03T06:56:33.037Z,8.71
2018-01-03T06:57:33.026Z,8.79
2018-01-03T06:58:33.013Z,8.70
2018-01-03T06:59:33.002Z,8.71
2018-01-03T07:00:32.988Z,8.74
2018-01-03T07:01:32.979Z,8.73
2018-01-03T07:02:32.968Z,8.70
2018-01-03T07:03:32.956Z,8.66
2018-01-03T07:04:32.943Z,8.63
2018-01-03T07:05:32.936Z,8.61
2018-01-03T07:06:32.921Z,8.64
2018-01-03T07:07:32.909Z,8.69
2018-01-03T07:08:32.897Z,8.71
2018-01-03T07:09:32.885Z,8.66
2018-01-03T07:10:32.875Z,8.63
2018-01-03T07:11:32.862Z,8.66
2018-01-03T07:12:32.850Z,8.60
2018-01-03T07:13:32.839Z,8.53
2018-01-03T07:14:32.833Z,8.55
2018-01-03T07:15:32.816Z,8.67
2018-01-03T07:16:32.804Z,8.64
2018-01-03T07:17:32.792Z,8.63
2018-01-03T07:18:32.781Z,8.69
2018-01-03T07:19:32.770Z,8.76
2018-01-03T07:20:32.763Z,8.78
2018-01-03T07:21:32.746Z,8.82
2018-01-03T07:22:32.735Z,8.84
2018-01-03T07:23:32.724Z,8.81
2018-01-03T07:24:32.711Z,8.82
2018-01-03T07:25:32.700Z,8.76
2018-01-03T07:26:32.690Z,8.73
2018-01-03T07:27:32.678Z,8.69
2018-01-03T07:28:32.666Z,8.73
2018-01-03T07:29:32.654Z,8.67
2018-01-03T07:30:32.645Z,8.78
2018-01-03T07:31:32.631Z,8.84
2018-01-03T07:32:32.620Z,8.79
2018-01-03T07:33:32.608Z,8.73
2018-01-03T07:34:32.596Z,8.67
2018-01-03T07:35:32.586Z,8.69
2018-01-03T07:36:32.574Z,8.66
2018-01-03T07:37:32.562Z,8.66
2018-01-03T07:38:32.551Z,8.74
2018-01-03T07:39:32.540Z,8.76
2018-01-03T07:40:32.527Z,8.79
2018-01-03T07:41:32.518Z,8.67
2018-01-03T07:42:32.506Z,8.70
2018-01-03T07:43:32.494Z,8.73
2018-01-03T07:44:32.483Z,8.76
2018-01-03T07:45:32.517Z,8.60
2018-01-03T07:46:32.459Z,8.63
2018-01-03T07:47:32.449Z,8.56
2018-01-03T07:48:32.436Z,8.63
2018-01-03T07:49:32.426Z,8.55
2018-01-03T07:50:32.414Z,8.55
2018-01-03T07:51:32.402Z,8.48
2018-01-03T07:52:32.391Z,8.60
2018-01-03T07:53:32.379Z,8.63
2018-01-03T07:54:32.368Z,8.67
2018-01-03T07:55:32.356Z,8.60
2018-01-03T07:56:32.344Z,8.64
2018-01-03T07:57:32.333Z,8.52
2018-01-03T07:58:32.322Z,8.51
2018-01-03T07:59:32.311Z,8.53
2018-01-03T08:00:32.299Z,8.55
2018-01-03T08:01:32.287Z,8.48
2018-01-03T08:02:32.277Z,8.44
2018-01-03T08:03:32.265Z,8.46
2018-01-03T08:04:32.253Z,8.45
2018-01-03T08:05:32.241Z,8.45
2018-01-03T08:06:32.230Z,8.46
2018-01-03T08:07:32.219Z,8.48
2018-01-03T08:08:32.205Z,8.49
2018-01-03T08:09:32.196Z,8.41
2018-01-03T08:10:32.184Z,8.41
2018-01-03T08:11:32.173Z,8.41
2018-01-03T08:12:32.160Z,8.37
2018-01-03T08:13:32.150Z,8.33
2018-01-03T08:14:32.138Z,8.31
2018-01-03T08:15:32.127Z,8.27
2018-01-03T08:16:32.114Z,8.19
2018-01-03T08:17:32.103Z,7.97
2018-01-03T08:18:32.092Z,7.63
2018-01-03T08:19:32.081Z,7.51
2018-01-03T08:20:32.068Z,7.33
2018-01-03T08:21:32.056Z,7.21
2018-01-03T08:22:32.045Z,7.18
2018-01-03T08:23:32.033Z,7.17
2018-01-03T08:24:32.020Z,7.24
2018-01-03T08:25:32.009Z,7.23
2018-01-03T08:26:31.996Z,7.13
2018-01-03T08:27:31.985Z,7.07
2018-01-03T08:28:31.972Z,7.21
2018-01-03T08:29:31.960Z,7.20
2018-01-03T08:30:31.949Z,7.17
2018-01-03T08:31:31.936Z,7.24
2018-01-03T08:32:31.922Z,7.20
2018-01-03T08:33:31.913Z,7.23
2018-01-03T08:34:31.899Z,7.23
2018-01-03T08:35:31.887Z,7.24
2018-01-03T08:36:31.873Z,7.11
2018-01-03T08:37:31.861Z,7.23
2018-01-03T08:38:31.850Z,7.07
2018-01-03T08:39:31.838Z,7.18
2018-01-03T08:40:31.825Z,7.13
2018-01-03T08:41:31.813Z,7.10
2018-01-03T08:42:31.800Z,7.10
2018-01-03T08:43:31.788Z,7.06
2018-01-03T08:44:31.775Z,7.02
2018-01-03T08:45:31.764Z,6.95
2018-01-03T08:46:31.752Z,6.99
2018-01-03T08:47:31.739Z,7.02
2018-01-03T08:48:31.726Z,6.99
2018-01-03T08:49:31.722Z,6.95
2018-01-03T08:50:31.702Z,7.03
2018-01-03T08:51:31.690Z,6.97
2018-01-03T08:52:31.678Z,7.07
2018-01-03T08:53:31.666Z,7.00
2018-01-03T08:54:31.653Z,6.99
2018-01-03T08:55:31.641Z,7.02
2018-01-03T08:56:31.628Z,6.99
2018-01-03T08:57:31.616Z,6.97
2018-01-03T08:58:31.604Z,7.07
2018-01-03T08:59:31.596Z,7.13
2018-01-03T09:00:31.582Z,7.07
2018-01-03T09:01:31.567Z,7.07
2018-01-03T09:02:31.555Z,7.03
2018-01-03T09:03:31.543Z,7.10
2018-01-03T09:04:31.530Z,7.14
2018-01-03T09:05:31.518Z,7.18
2018-01-03T09:06:31.505Z,7.18
2018-01-03T09:07:31.499Z,7.23
2018-01-03T09:08:31.480Z,7.10
2018-01-03T09:09:31.467Z,7.10
2018-01-03T09:10:31.455Z,7.03
2018-01-03T09:11:31.445Z,7.28
2018-01-03T09:12:31.431Z,7.21
2018-01-03T09:13:31.418Z,7.25
2018-01-03T09:14:31.448Z,7.21
2018-01-03T09:15:31.396Z,7.32
2018-01-03T09:16:31.382Z,7.40
2018-01-03T09:17:31.371Z,7.48
2018-01-03T09:18:31.358Z,7.45
2018-01-03T09:19:31.353Z,7.58
2018-01-03T09:20:31.333Z,7.54
2018-01-03T09:21:31.323Z,7.69
2018-01-03T09:22:31.310Z,7.70
2018-01-03T09:23:31.299Z,7.73
2018-01-03T09:24:31.286Z,7.72
2018-01-03T09:25:31.273Z,7.70
2018-01-03T09:26:31.263Z,7.73
2018-01-03T09:27:31.251Z,7.61
2018-01-03T09:28:31.238Z,7.67
2018-01-03T09:29:31.226Z,7.67
2018-01-03T09:30:31.214Z,7.72
2018-01-03T09:31:31.203Z,7.76
2018-01-03T09:32:31.191Z,7.72
2018-01-03T09:33:31.178Z,7.80
2018-01-03T09:34:31.166Z,7.72
2018-01-03T09:35:31.155Z,7.75
2018-01-03T09:36:31.142Z,7.75
2018-01-03T09:37:31.130Z,7.73
2018-01-03T09:38:31.119Z,7.69
2018-01-03T09:39:31.108Z,7.69
2018-01-03T09:40:31.095Z,7.67
2018-01-03T09:41:31.083Z,7.70
2018-01-03T09:42:31.072Z,7.82
2018-01-03T09:43:31.061Z,7.80
2018-01-03T09:44:31.048Z,7.93
2018-01-03T09:45:31.036Z,7.91
2018-01-03T09:46:31.025Z,7.94
2018-01-03T09:47:31.014Z,7.97
2018-01-03T09:48:31.002Z,7.95
2018-01-03T09:49:30.991Z,7.94
2018-01-03T09:50:30.980Z,7.94
2018-01-03T09:51:30.968Z,7.97
2018-01-03T09:52:30.957Z,7.90
2018-01-03T09:53:30.944Z,8.08
2018-01-03T09:54:30.933Z,7.91
2018-01-03T09:55:30.923Z,7.93
2018-01-03T09:56:30.911Z,7.98
2018-01-03T09:57:30.900Z,8.08
2018-01-03T09:58:30.888Z,8.00
2018-01-03T09:59:30.877Z,8.05
2018-01-03T10:00:30.865Z,8.05
2018-01-03T10:01:30.854Z,7.98
2018-01-03T10:02:30.843Z,8.08
2018-01-03T10:03:30.832Z,7.98
2018-01-03T10:04:30.822Z,8.13
2018-01-03T10:05:30.809Z,8.19
2018-01-03T10:06:30.797Z,8.18
2018-01-03T10:07:30.787Z,8.20
2018-01-03T10:08:30.775Z,8.19
2018-01-03T10:09:30.767Z,8.15
2018-01-03T10:10:30.753Z,8.23
2018-01-03T10:11:30.742Z,8.15
2018-01-03T10:12:30.732Z,8.10
2018-01-03T10:13:30.719Z,8.05
2018-01-03T10:14:30.709Z,8.09
2018-01-03T10:15:30.697Z,7.98
2018-01-03T10:16:30.739Z,8.03
2018-01-03T10:17:30.674Z,8.05
2018-01-03T10:18:30.662Z,7.98
2018-01-03T10:19:30.652Z,7.98
2018-01-03T10:20:30.639Z,7.93
2018-01-03T10:21:30.629Z,8.00
2018-01-03T10:22:30.618Z,7.95
2018-01-03T10:23:30.606Z,7.83
2018-01-03T10:24:30.599Z,7.83
2018-01-03T10:25:30.583Z,7.82
2018-01-03T10:26:30.571Z,7.91
2018-01-03T10:27:30.560Z,7.97
2018-01-03T10:28:30.546Z,7.83
2018-01-03T10:29:30.536Z,7.83
2018-01-03T10:30:30.525Z,7.85
2018-01-03T10:31:30.521Z,7.82
2018-01-03T10:32:30.507Z,7.82
2018-01-03T10:33:30.489Z,7.88
2018-01-03T10:34:30.479Z,7.87
2018-01-03T10:35:30.468Z,7.87
2018-01-03T10:36:30.456Z,7.83
2018-01-03T10:37:30.442Z,7.85
2018-01-03T10:38:30.433Z,7.82
2018-01-03T10:39:30.420Z,7.83
2018-01-03T10:40:30.408Z,7.85
2018-01-03T10:41:30.397Z,7.90
2018-01-03T10:42:30.385Z,7.90
2018-01-03T10:43:30.374Z,7.88
2018-01-03T10:44:30.362Z,7.93
2018-01-03T10:45:30.351Z,7.88
2018-01-03T10:46:30.338Z,7.91
2018-01-03T10:47:30.328Z,7.82
2018-01-03T10:48:30.315Z,7.87
2018-01-03T10:49:30.303Z,7.91
2018-01-03T10:50:30.292Z,7.87
2018-01-03T10:51:30.280Z,7.97
2018-01-03T10:52:30.268Z,7.91
2018-01-03T10:53:30.257Z,8.03
2018-01-03T10:54:30.246Z,7.93
2018-01-03T10:55:30.234Z,7.98
2018-01-03T10:56:30.221Z,7.95
2018-01-03T10:57:30.210Z,7.97
2018-01-03T10:58:30.199Z,7.93
2018-01-03T10:59:30.188Z,7.93
2018-01-03T11:00:30.175Z,7.85
2018-01-03T11:01:30.164Z,7.87
2018-01-03T11:02:30.153Z,7.93
2018-01-03T11:03:30.142Z,7.83
2018-01-03T11:04:30.128Z,7.88
2018-01-03T11:05:30.117Z,7.77
2018-01-03T11:06:30.106Z,7.69
2018-01-03T11:07:30.094Z,7.70
2018-01-03T11:08:30.082Z,7.72
2018-01-03T11:09:30.071Z,7.69
2018-01-03T11:10:30.058Z,7.50
2018-01-03T11:11:30.046Z,7.56
2018-01-03T11:12:30.034Z,7.53
2018-01-03T11:13:30.022Z,7.50
2018-01-03T11:14:30.011Z,7.53
2018-01-03T11:15:29.999Z,7.56
2018-01-03T11:16:29.987Z,7.53
2018-01-03T11:17:29.976Z,7.50
2018-01-03T11:18:29.963Z,7.67
2018-01-03T11:19:29.952Z,7.69
2018-01-03T11:20:29.939Z,7.61
2018-01-03T11:21:29.929Z,7.76
2018-01-03T11:22:29.925Z,7.72
2018-01-03T11:23:29.905Z,7.79
2018-01-03T11:24:29.893Z,7.72
2018-01-03T11:25:29.881Z,7.67
2018-01-03T11:26:29.872Z,7.69
2018-01-03T11:27:29.857Z,7.51
2018-01-03T11:28:29.845Z,7.57
2018-01-03T11:29:29.833Z,7.54
2018-01-03T11:30:29.821Z,7.58
2018-01-03T11:31:29.809Z,7.53
2018-01-03T11:32:29.797Z,7.57
2018-01-03T11:33:29.785Z,7.50
2018-01-03T11:34:29.774Z,7.56
2018-01-03T11:35:29.762Z,7.53
2018-01-03T11:36:29.750Z,7.57
2018-01-03T11:37:29.737Z,7.47
2018-01-03T11:38:29.726Z,7.54
2018-01-03T11:39:29.715Z,7.51
2018-01-03T11:40:29.701Z,7.58
2018-01-03T11:41:29.693Z,7.60
2018-01-03T11:42:29.686Z,7.58
2018-01-03T11:43:29.673Z,7.57
2018-01-03T11:44:29.654Z,7.57
2018-01-03T11:45:29.641Z,7.43
2018-01-03T11:46:29.631Z,7.50
2018-01-03T11:47:29.619Z,7.48
2018-01-03T11:48:29.607Z,7.45
2018-01-03T11:49:29.594Z,7.48
2018-01-03T11:50:29.583Z,7.48
2018-01-03T11:51:29.571Z,7.48
2018-01-03T11:52:29.558Z,7.47
2018-01-03T11:53:29.546Z,7.48
2018-01-03T11:54:29.535Z,7.51
2018-01-03T11:55:29.523Z,7.54
2018-01-03T11:56:29.510Z,7.57
2018-01-03T11:57:29.499Z,7.58
2018-01-03T11:58:29.495Z,7.56
2018-01-03T11:59:29.475Z,7.50
2018-01-03T12:00:29.462Z,7.54
2018-01-03T12:01:29.450Z,7.50
2018-01-03T12:02:29.439Z,7.54
2018-01-03T12:03:29.427Z,7.70
2018-01-03T12:04:29.414Z,7.61
2018-01-03T12:05:29.402Z,7.66
2018-01-03T12:06:29.393Z,7.66
2018-01-03T12:07:29.378Z,7.73
2018-01-03T12:08:29.366Z,7.61
2018-01-03T12:09:29.353Z,7.61
2018-01-03T12:10:29.341Z,7.73
2018-01-03T12:11:29.330Z,7.58
2018-01-03T12:12:29.321Z,7.61
2018-01-03T12:13:29.306Z,7.63
2018-01-03T12:14:29.297Z,7.63
2018-01-03T12:15:29.281Z,7.54
2018-01-03T12:16:29.268Z,7.60
2018-01-03T12:17:29.256Z,7.67
2018-01-03T12:18:29.245Z,7.61
2018-01-03T12:19:29.233Z,7.69
2018-01-03T12:20:29.220Z,7.66
2018-01-03T12:21:29.208Z,7.53
2018-01-03T12:22:29.197Z,7.50
2018-01-03T12:23:29.185Z,7.56
2018-01-03T12:24:29.172Z,7.57
2018-01-03T12:25:29.163Z,7.54
2018-01-03T12:26:29.148Z,7.51
2018-01-03T12:27:29.136Z,7.58
2018-01-03T12:28:29.123Z,7.50
2018-01-03T12:29:29.111Z,7.66
2018-01-03T12:30:29.099Z,7.67
2018-01-03T12:31:29.087Z,7.76
2018-01-03T12:32:29.081Z,7.76
2018-01-03T12:33:29.063Z,7.77
2018-01-03T12:34:29.050Z,7.82
2018-01-03T12:35:29.039Z,7.90
2018-01-03T12:36:29.025Z,7.82
2018-01-03T12:37:29.013Z,7.90
2018-01-03T12:38:29.002Z,7.83
2018-01-03T12:39:28.990Z,7.93
2018-01-03T12:40:28.978Z,8.05
2018-01-03T12:41:28.967Z,8.06
2018-01-03T12:42:28.954Z,8.10
2018-01-03T12:43:28.942Z,8.16
2018-01-03T12:44:28.937Z,8.13
2018-01-03T12:45:28.918Z,8.09
2018-01-03T12:46:28.906Z,8.06
2018-01-03T12:47:28.895Z,8.15
2018-01-03T12:48:28.880Z,8.10
2018-01-03T12:49:28.893Z,8.08
2018-01-03T12:50:28.859Z,8.16
2018-01-03T12:51:28.846Z,8.10
2018-01-03T12:52:28.833Z,8.13
2018-01-03T12:53:28.821Z,8.12
2018-01-03T12:54:28.809Z,8.10
2018-01-03T12:55:28.799Z,8.15
2018-01-03T12:56:28.790Z,8.06
2018-01-03T12:57:28.774Z,7.95
2018-01-03T12:58:28.763Z,7.97
2018-01-03T12:59:28.752Z,7.87
2018-01-03T13:00:28.746Z,7.76
2018-01-03T13:01:28.726Z,7.80
2018-01-03T13:02:28.715Z,7.85
2018-01-03T13:03:28.706Z,7.85
2018-01-03T13:04:28.690Z,7.85
2018-01-03T13:05:28.680Z,7.93
2018-01-03T13:06:28.667Z,8.00
2018-01-03T13:07:28.655Z,7.91
2018-01-03T13:08:28.642Z,8.01
2018-01-03T13:09:28.631Z,7.98
2018-01-03T13:10:28.619Z,8.13
2018-01-03T13:11:28.608Z,8.09
2018-01-03T13:12:28.596Z,8.13
2018-01-03T13:13:28.584Z,8.15